Terminal Aerodrome Forecast
Issued by NWS

Home | Current Version | Previous Version | Text Only | Print | Product List | Glossary On
Versions: 1 2 3 4 5 6 7 8 9 10 11 12 13
939
FTPA31 PHFO 101736 AAA
TAFHJH
TAF AMD
PHJH 101736Z 1018/1118 VRB05KT 6SM RA SCT015 BKN035 OVC070
      TEMPO 1018/1020 2SM RA BR BKN006 BKN025 OVC050
     FM102000 18007KT P6SM VCSH SCT017 BKN035 OVC080
     FM110400 VRB05KT P6SM VCSH SCT023 BKN040 OVC100=

USA.gov is the U.S. government's official web portal to all federal, state and local government web resources and services.